Terminal Aerodrome Forecast
Issued by NWS Omaha/Valley, NE

Home | Current Version | Previous Version | Text Only | Print | Product List | Glossary On
Versions: 1 2 3 4 5 6 7 8 9 10 11 12 13 14 15 16 17 18 19 20 21
000
FTUS43 KOAX 201518 AAA
TAFLNK
TAF AMD
KLNK 201518Z 2015/2112 18010KT P6SM OVC009
     FM201700 20012KT P6SM BKN015
     FM201800 23013KT P6SM BKN090
     FM202000 29014KT P6SM BKN130
     FM202300 31008KT P6SM FEW150
     FM210100 31004KT P6SM FEW200=

USA.gov is the U.S. government's official web portal to all federal, state and local government web resources and services.